KPOU/POU METAR and TAF weather

Enter ICAO airport designator
Station Type Date Time Source
KPOU METAR 2019/12/08 06:53 UTC NOAA

KPOU 080653Z 00000KT 10SM CLR M10/M13 A3051 RMK AO2 SLP331 I1000 T11001133


Station Type Date Time Source
KPOU Decoded METAR 2019/12/08 06:53 UTC NOAA

POUGHKEEPSIE DUTCHESS CTY, NY, United States (KPOU) 41-38N 073-53W 46M
Dec 08, 2019 - 01:53 AM EST / 2019.12.08 0653 UTC
Wind: Calm:0
Visibility: 10 mile(s):0
Sky conditions: clear
Temperature: 14.0 F (-10.0 C)
Dew Point: 8.1 F (-13.3 C)
Relative Humidity: 76%
Pressure (altimeter): 30.51 in. Hg (1033 hPa)
ob: KPOU 080653Z 00000KT 10SM CLR M10/M13 A3051 RMK AO2 SLP331 I1000 T11001133
cycle: 7

Station Type Date Time Source
KPOU TAF 2019/12/08 06:36 UTC NOAA

TAF KPOU 080534Z 0806/0906 00000KT P6SM SKC
FM081700 19007KT P6SM SCT150
FM090000 19006KT P6SM SCT025 WS020/19030KT
FM090400 20006KT P6SM BKN025 WS020/20030KT

Example: see airport list